Time;durP1;ratioP1;P1;durP2;ratioP2;P2;SDS_P1;SDS_P2;PMS_P1;PMS_P2;Temp;Humidity;BMP_temperature;BMP_pressure;BME280_temperature;BME280_humidity;BME280_pressure;Samples;Min_cycle;Max_cycle;Signal;HPM_P1;HPM_P2
2022/01/03 00:01:28;;;;;;;22.40;3.67;;;11.20;99.90;;;;;;6312185;22;20153;-87
2022/01/03 00:03:55;;;;;;;19.90;4.37;;;11.30;99.90;;;;;;6312872;22;20150;-87
2022/01/03 00:06:20;;;;;;;22.10;3.17;;;11.20;99.90;;;;;;6312700;22;20225;-88
2022/01/03 00:08:46;;;;;;;22.33;4.20;;;11.20;99.90;;;;;;6312771;22;20149;-88
2022/01/03 00:11:14;;;;;;;13.47;3.83;;;11.20;99.90;;;;;;6312869;22;20468;-88
2022/01/03 00:13:46;;;;;;;26.63;4.80;;;11.20;99.90;;;;;;6312695;22;20474;-88
2022/01/03 00:16:12;;;;;;;23.87;3.90;;;11.30;99.90;;;;;;6312138;22;20193;-89
2022/01/03 00:18:39;;;;;;;21.13;4.73;;;11.20;99.90;;;;;;6310910;22;20153;-88
2022/01/03 00:21:11;;;;;;;23.47;6.30;;;11.10;99.90;;;;;;6310670;22;20509;-89
2022/01/03 00:23:39;;;;;;;25.67;7.47;;;11.20;99.90;;;;;;6311109;22;20168;-88
2022/01/03 00:26:08;;;;;;;19.50;4.27;;;11.20;99.90;;;;;;6311338;22;20141;-88
2022/01/03 00:28:38;;;;;;;41.80;16.63;;;11.20;99.90;;;;;;6310603;22;20224;-88
2022/01/03 00:31:05;;;;;;;21.13;4.57;;;11.30;99.90;;;;;;6310563;22;20145;-87
2022/01/03 00:33:32;;;;;;;20.97;4.47;;;11.20;99.90;;;;;;6310670;22;20142;-88
2022/01/03 00:36:03;;;;;;;17.80;4.83;;;11.20;99.90;;;;;;6310890;22;20255;-88
2022/01/03 00:38:31;;;;;;;19.10;3.77;;;11.20;99.90;;;;;;6310983;22;20171;-88
2022/01/03 00:40:59;;;;;;;16.63;5.60;;;11.20;99.90;;;;;;6310807;22;20155;-88
2022/01/03 00:43:26;;;;;;;15.23;4.27;;;11.30;99.90;;;;;;6310909;22;20524;-88
2022/01/03 00:45:55;;;;;;;30.57;11.33;;;11.30;99.90;;;;;;6310900;22;21220;-88
2022/01/03 00:48:22;;;;;;;19.83;4.20;;;11.30;99.90;;;;;;6310923;22;20153;-88
2022/01/03 00:50:48;;;;;;;29.67;8.97;;;11.30;99.90;;;;;;6310441;22;20143;-87
2022/01/03 00:53:14;;;;;;;22.30;3.97;;;11.40;99.90;;;;;;6310680;22;20157;-88
2022/01/03 00:55:55;;;;;;;16.67;4.87;;;11.30;99.90;;;;;;6310391;22;20201;-88
2022/01/03 00:58:23;;;;;;;22.83;4.93;;;11.40;99.90;;;;;;6310781;22;20232;-88
2022/01/03 01:00:54;;;;;;;26.63;7.33;;;11.40;99.90;;;;;;6310542;22;20153;-88
2022/01/03 01:03:21;;;;;;;18.23;2.90;;;11.50;99.90;;;;;;6310762;22;20214;-88
2022/01/03 01:05:49;;;;;;;18.00;3.90;;;11.40;99.90;;;;;;6310791;22;20149;-88
2022/01/03 01:08:20;;;;;;;19.37;3.90;;;11.50;99.90;;;;;;6310994;22;20141;-88
2022/01/03 01:10:47;;;;;;;20.63;3.40;;;11.40;99.90;;;;;;6310625;22;20141;-88
2022/01/03 01:13:14;;;;;;;14.53;2.40;;;11.30;99.90;;;;;;6310783;22;20145;-88
2022/01/03 01:15:41;;;;;;;21.37;4.57;;;11.40;99.90;;;;;;6310618;22;20255;-88
2022/01/03 01:18:07;;;;;;;22.47;4.10;;;11.30;99.90;;;;;;6260260;22;1172773;-88
2022/01/03 01:20:36;;;;;;;12.57;2.60;;;11.40;99.90;;;;;;6312312;22;20206;-88
2022/01/03 01:23:02;;;;;;;23.27;5.87;;;11.40;99.90;;;;;;6311887;22;20626;-88
2022/01/03 01:28:05;;;;;;;21.33;2.63;;;11.50;99.90;;;;;;6324658;22;20145;-88
2022/01/03 01:30:31;;;;;;;17.33;2.93;;;11.40;99.90;;;;;;6312607;22;20208;-88
2022/01/03 01:33:04;;;;;;;16.90;2.50;;;11.40;99.90;;;;;;6311509;22;20177;-88
2022/01/03 01:35:41;;;;;;;21.63;3.27;;;11.40;99.90;;;;;;6312252;22;20177;-88
2022/01/03 01:38:09;;;;;;;20.67;3.17;;;11.40;99.90;;;;;;6311954;22;20530;-89
2022/01/03 01:40:45;;;;;;;23.53;4.63;;;11.50;99.90;;;;;;6311925;22;20145;-88
2022/01/03 01:43:12;;;;;;;21.47;3.30;;;11.50;99.90;;;;;;6311541;22;20204;-89
2022/01/03 01:45:41;;;;;;;14.20;3.23;;;11.60;99.90;;;;;;6311971;22;20283;-88
2022/01/03 01:48:11;;;;;;;20.97;2.70;;;11.60;99.90;;;;;;6311661;22;20236;-88
2022/01/03 01:50:39;;;;;;;13.73;2.73;;;11.60;99.90;;;;;;6312096;22;20215;-89
2022/01/03 01:53:06;;;;;;;9.40;2.53;;;11.60;99.90;;;;;;6311609;22;20199;-88
2022/01/03 01:55:31;;;;;;;13.33;2.97;;;11.70;99.90;;;;;;6311829;22;20226;-88
2022/01/03 01:58:00;;;;;;;25.33;3.23;;;11.60;99.90;;;;;;6311640;22;20157;-88
2022/01/03 02:00:26;;;;;;;21.10;3.00;;;11.60;99.90;;;;;;6312399;22;20149;-88
2022/01/03 02:03:07;;;;;;;16.57;3.03;;;11.60;99.90;;;;;;6311283;22;20153;-88
2022/01/03 02:05:41;;;;;;;19.67;3.53;;;11.50;99.90;;;;;;6311944;22;20151;-88
2022/01/03 02:08:27;;;;;;;22.93;4.27;;;11.60;99.90;;;;;;6311491;22;20149;-88
2022/01/03 02:11:12;;;;;;;18.90;3.43;;;11.60;99.90;;;;;;6311662;22;20609;-88
2022/01/03 02:13:39;;;;;;;16.67;3.20;;;11.60;99.90;;;;;;6311653;22;20489;-88
2022/01/03 02:16:05;;;;;;;17.07;3.07;;;11.60;99.90;;;;;;6311366;22;20196;-88
2022/01/03 02:18:32;;;;;;;20.23;3.03;;;11.60;99.90;;;;;;6311545;22;20538;-88
2022/01/03 02:21:01;;;;;;;15.17;2.67;;;11.60;99.90;;;;;;6311718;22;20199;-88
2022/01/03 02:23:26;;;;;;;19.33;3.40;;;11.60;99.90;;;;;;6311588;22;20164;-88
2022/01/03 02:25:52;;;;;;;19.90;2.73;;;11.60;99.90;;;;;;6311826;22;20158;-88
2022/01/03 02:28:20;;;;;;;19.10;2.77;;;11.70;99.90;;;;;;6311460;22;20570;-88
2022/01/03 02:30:47;;;;;;;17.17;2.87;;;11.70;99.90;;;;;;6311341;22;20153;-88
2022/01/03 02:33:13;;;;;;;15.37;2.63;;;11.60;99.90;;;;;;6311428;22;20145;-88
2022/01/03 02:35:40;;;;;;;16.43;2.63;;;11.70;99.90;;;;;;6311551;22;20196;-88
2022/01/03 02:38:07;;;;;;;16.33;2.50;;;11.70;99.90;;;;;;6311433;22;20145;-88
2022/01/03 02:40:33;;;;;;;18.07;2.63;;;11.70;99.90;;;;;;6311497;22;20156;-88
2022/01/03 02:42:59;;;;;;;14.07;2.40;;;11.60;99.90;;;;;;6311449;22;20154;-88
2022/01/03 02:45:25;;;;;;;15.90;2.30;;;11.50;99.90;;;;;;6311755;22;20461;-87
2022/01/03 02:47:55;;;;;;;12.20;2.47;;;11.50;99.90;;;;;;6311627;22;20145;-88
2022/01/03 02:50:23;;;;;;;11.10;2.00;;;11.40;99.90;;;;;;6311680;22;20211;-87
2022/01/03 02:52:49;;;;;;;15.17;2.97;;;11.40;99.90;;;;;;6311796;22;20561;-88
2022/01/03 02:55:16;;;;;;;15.63;2.50;;;11.40;99.90;;;;;;6311800;22;20149;-87
2022/01/03 02:57:44;;;;;;;20.90;3.10;;;11.30;99.90;;;;;;6313855;22;20157;-89
2022/01/03 03:00:13;;;;;;;12.30;2.00;;;11.20;99.90;;;;;;6312966;22;20149;-88
2022/01/03 03:02:39;;;;;;;18.97;2.60;;;11.20;99.90;;;;;;6313877;22;20581;-88
2022/01/03 03:05:07;;;;;;;14.13;2.30;;;11.30;99.90;;;;;;6313288;22;20141;-88
2022/01/03 03:07:33;;;;;;;13.10;2.13;;;11.20;99.90;;;;;;6313539;22;20152;-88
2022/01/03 03:10:00;;;;;;;14.87;2.33;;;11.20;99.90;;;;;;6313284;22;20145;-88
2022/01/03 03:12:27;;;;;;;14.47;2.30;;;11.20;99.90;;;;;;6313424;22;20149;-88
2022/01/03 03:14:53;;;;;;;18.80;2.73;;;11.10;99.90;;;;;;6312957;22;20567;-87
2022/01/03 03:17:19;;;;;;;14.00;2.27;;;11.20;99.90;;;;;;6313451;22;20237;-88
2022/01/03 03:19:49;;;;;;;15.13;2.40;;;11.10;99.90;;;;;;6313262;22;20183;-88
2022/01/03 03:22:15;;;;;;;13.50;2.03;;;11.10;99.90;;;;;;6313184;22;20510;-88
2022/01/03 03:24:40;;;;;;;10.60;2.20;;;11.10;99.90;;;;;;6313181;22;20202;-88
2022/01/03 03:27:10;;;;;;;15.97;2.17;;;11.00;99.90;;;;;;6313373;22;20153;-88
2022/01/03 03:29:42;;;;;;;19.83;2.57;;;10.90;99.90;;;;;;6313008;22;20153;-88
2022/01/03 03:32:10;;;;;;;16.23;2.57;;;10.90;99.90;;;;;;6313272;22;20158;-88
2022/01/03 03:34:36;;;;;;;14.43;2.63;;;10.90;99.90;;;;;;6313034;22;20176;-87
2022/01/03 03:37:02;;;;;;;15.43;3.10;;;10.90;99.90;;;;;;6312838;22;20687;-87
2022/01/03 03:39:27;;;;;;;12.73;2.70;;;10.80;99.90;;;;;;6313290;22;20570;-88
2022/01/03 03:41:53;;;;;;;14.00;2.40;;;10.80;99.90;;;;;;6313309;22;20533;-87
2022/01/03 03:44:18;;;;;;;15.00;3.40;;;10.90;99.90;;;;;;6312831;22;20206;-88
2022/01/03 03:46:44;;;;;;;20.40;3.50;;;10.90;99.90;;;;;;6313073;22;20258;-87
2022/01/03 03:49:09;;;;;;;14.37;2.20;;;10.90;99.90;;;;;;6312967;22;20500;-88
2022/01/03 03:51:38;;;;;;;16.37;2.63;;;11.00;99.90;;;;;;6313018;22;20146;-87
2022/01/03 03:54:04;;;;;;;9.00;2.33;;;10.90;99.90;;;;;;6312799;22;20526;-87
2022/01/03 03:56:30;;;;;;;10.60;2.17;;;10.90;99.90;;;;;;6312819;22;20177;-87
2022/01/03 03:58:55;;;;;;;13.80;2.40;;;10.90;99.90;;;;;;6312695;22;20149;-87
2022/01/03 04:01:21;;;;;;;14.40;1.93;;;10.80;99.90;;;;;;6312895;22;20145;-88
2022/01/03 04:03:47;;;;;;;12.30;2.40;;;10.80;99.90;;;;;;6312936;22;20137;-88
2022/01/03 04:06:12;;;;;;;13.90;2.00;;;10.90;99.90;;;;;;6312560;22;20157;-88
2022/01/03 04:08:38;;;;;;;15.87;2.33;;;10.90;99.90;;;;;;6312867;22;20145;-87
2022/01/03 04:11:04;;;;;;;15.80;2.90;;;10.90;99.90;;;;;;6312810;22;20578;-87
2022/01/03 04:13:29;;;;;;;19.00;2.77;;;11.00;99.90;;;;;;6312720;22;20137;-87
2022/01/03 04:15:55;;;;;;;16.60;2.70;;;11.00;99.90;;;;;;6312500;22;20185;-87
2022/01/03 04:18:20;;;;;;;12.53;2.50;;;11.00;99.90;;;;;;6312819;22;20180;-87
2022/01/03 04:20:46;;;;;;;17.83;2.57;;;11.00;99.90;;;;;;6312866;22;20150;-87
2022/01/03 04:23:12;;;;;;;18.87;2.43;;;11.00;99.90;;;;;;6312988;22;20173;-87
2022/01/03 04:25:38;;;;;;;17.33;2.60;;;11.00;99.90;;;;;;6312939;22;20446;-87
2022/01/03 04:28:04;;;;;;;13.70;2.23;;;11.00;99.90;;;;;;6312338;22;20207;-88
2022/01/03 04:30:30;;;;;;;21.27;2.93;;;11.10;99.90;;;;;;6312500;22;20479;-87
2022/01/03 04:32:56;;;;;;;15.33;2.53;;;11.10;99.90;;;;;;6312700;22;20141;-87
2022/01/03 04:35:21;;;;;;;14.07;2.23;;;11.20;99.90;;;;;;6312540;22;20153;-87
2022/01/03 04:37:47;;;;;;;15.13;2.50;;;11.00;99.90;;;;;;6312730;22;20145;-87
2022/01/03 04:40:13;;;;;;;16.93;2.70;;;11.00;99.90;;;;;;6312704;22;20159;-87
2022/01/03 04:42:38;;;;;;;15.30;3.07;;;11.00;99.90;;;;;;6312309;22;20564;-88
2022/01/03 04:45:05;;;;;;;11.97;2.20;;;11.10;99.90;;;;;;6312616;22;20145;-87
2022/01/03 04:47:30;;;;;;;16.53;2.43;;;11.20;99.90;;;;;;6312542;22;20157;-87
2022/01/03 04:49:56;;;;;;;18.70;2.93;;;11.10;99.90;;;;;;6312365;22;20274;-87
2022/01/03 04:52:22;;;;;;;20.97;2.67;;;11.20;99.90;;;;;;6312177;22;20146;-87
2022/01/03 04:54:47;;;;;;;16.23;2.93;;;11.10;99.90;;;;;;6312297;22;20179;-87
2022/01/03 04:57:13;;;;;;;12.83;1.97;;;11.20;99.90;;;;;;6311796;22;20489;-86
2022/01/03 04:59:39;;;;;;;15.57;2.93;;;11.10;99.90;;;;;;6312427;22;20145;-87
2022/01/03 05:02:05;;;;;;;15.87;2.60;;;11.10;99.90;;;;;;6312531;22;20535;-87
2022/01/03 05:04:31;;;;;;;15.43;2.33;;;11.10;99.90;;;;;;6312348;22;20232;-87
2022/01/03 05:06:57;;;;;;;16.73;3.00;;;11.20;99.90;;;;;;6312168;22;20566;-87
2022/01/03 05:09:22;;;;;;;17.67;3.30;;;11.20;99.90;;;;;;6312627;22;20145;-87
2022/01/03 05:11:48;;;;;;;16.37;2.50;;;11.20;99.90;;;;;;6312061;22;20574;-87
2022/01/03 05:14:14;;;;;;;13.03;2.20;;;11.20;99.90;;;;;;6312416;22;20149;-87
2022/01/03 05:16:40;;;;;;;17.37;2.87;;;11.30;99.90;;;;;;6311864;22;20248;-88
2022/01/03 05:19:06;;;;;;;16.37;2.50;;;11.30;99.90;;;;;;6311695;22;20142;-88
2022/01/03 05:21:31;;;;;;;18.80;3.10;;;11.30;99.90;;;;;;6312161;22;20224;-88
2022/01/03 05:23:57;;;;;;;19.30;3.00;;;11.40;99.90;;;;;;6312304;22;20156;-88
2022/01/03 05:26:23;;;;;;;16.27;2.63;;;11.30;99.90;;;;;;6311779;22;20153;-88
2022/01/03 05:28:48;;;;;;;18.27;3.20;;;11.40;99.90;;;;;;6312038;22;20224;-87
2022/01/03 05:31:14;;;;;;;17.20;3.60;;;11.40;99.90;;;;;;6312025;22;20643;-88
2022/01/03 05:33:40;;;;;;;18.27;2.73;;;11.30;99.90;;;;;;6311893;22;20146;-88
2022/01/03 05:36:06;;;;;;;15.53;2.37;;;11.30;99.90;;;;;;6312044;22;20183;-88
2022/01/03 05:38:32;;;;;;;14.47;3.27;;;11.40;99.90;;;;;;6312369;22;20142;-88
2022/01/03 05:40:58;;;;;;;16.20;3.20;;;11.30;99.90;;;;;;6311854;22;20566;-88
2022/01/03 05:43:23;;;;;;;17.20;2.80;;;11.20;99.90;;;;;;6312014;22;20187;-88
2022/01/03 05:45:49;;;;;;;20.03;3.77;;;11.20;99.90;;;;;;6311993;22;20547;-87
2022/01/03 05:48:15;;;;;;;15.43;2.80;;;11.10;99.90;;;;;;6311726;22;20491;-88
2022/01/03 05:50:40;;;;;;;14.37;2.30;;;11.10;99.90;;;;;;6311806;22;20530;-87
2022/01/03 05:53:06;;;;;;;12.10;2.47;;;11.10;99.90;;;;;;6311927;22;20137;-87
2022/01/03 05:55:31;;;;;;;14.43;3.10;;;11.00;99.90;;;;;;6311896;22;20187;-88
2022/01/03 05:57:57;;;;;;;20.63;3.13;;;10.90;99.90;;;;;;6311910;22;20585;-87
2022/01/03 06:00:25;;;;;;;25.43;3.87;;;10.90;99.90;;;;;;6312198;22;20156;-87
2022/01/03 06:02:57;;;;;;;16.63;2.77;;;10.80;99.90;;;;;;6311520;22;20454;-87
2022/01/03 06:05:42;;;;;;;20.93;2.90;;;10.90;99.90;;;;;;6311970;22;20216;-87
2022/01/03 06:08:08;;;;;;;23.73;3.57;;;10.90;99.90;;;;;;6311291;22;20572;-87
2022/01/03 06:10:39;;;;;;;17.50;2.67;;;10.90;99.90;;;;;;6311774;22;20145;-87
2022/01/03 06:13:05;;;;;;;19.93;3.00;;;10.80;99.90;;;;;;6311781;22;20204;-87
2022/01/03 06:15:31;;;;;;;18.80;3.10;;;10.80;99.90;;;;;;6311703;22;20648;-87
2022/01/03 06:17:56;;;;;;;15.40;3.40;;;10.80;99.90;;;;;;6311469;22;20256;-87
2022/01/03 06:20:23;;;;;;;28.30;4.30;;;10.80;99.90;;;;;;6311867;22;20456;-87
2022/01/03 06:22:49;;;;;;;12.60;2.90;;;10.80;99.90;;;;;;6311276;22;20310;-87
2022/01/03 06:25:14;;;;;;;19.03;3.57;;;10.90;99.90;;;;;;6311526;22;20137;-87
2022/01/03 06:27:40;;;;;;;17.37;3.27;;;10.90;99.90;;;;;;6311563;22;20149;-87
2022/01/03 06:30:07;;;;;;;17.83;3.30;;;10.90;99.90;;;;;;6311421;22;20163;-87
2022/01/03 06:32:32;;;;;;;17.97;3.80;;;11.00;99.90;;;;;;6311799;22;20157;-87
2022/01/03 06:34:58;;;;;;;20.23;3.57;;;11.00;99.90;;;;;;6312037;22;20582;-87
2022/01/03 06:37:24;;;;;;;17.83;3.30;;;11.00;99.90;;;;;;6311406;22;20656;-87
2022/01/03 06:39:50;;;;;;;16.67;3.50;;;11.00;99.90;;;;;;6311588;22;20228;-87
2022/01/03 06:42:15;;;;;;;12.20;2.80;;;11.00;99.90;;;;;;6311607;22;20205;-87
2022/01/03 06:44:43;;;;;;;14.80;2.80;;;11.00;99.90;;;;;;6311389;22;20148;-87
2022/01/03 06:47:09;;;;;;;22.73;3.30;;;11.00;99.90;;;;;;6311642;22;20145;-87
2022/01/03 06:49:35;;;;;;;21.57;3.27;;;11.10;99.90;;;;;;6311368;22;20469;-87
2022/01/03 06:52:00;;;;;;;15.30;3.43;;;11.20;99.90;;;;;;6311239;22;20133;-88
2022/01/03 06:54:26;;;;;;;14.73;2.77;;;11.20;99.90;;;;;;6311717;22;20148;-87
2022/01/03 06:56:54;;;;;;;16.73;3.30;;;11.10;99.90;;;;;;6311543;22;20203;-87
2022/01/03 06:59:19;;;;;;;14.37;3.40;;;11.10;99.90;;;;;;6311360;22;20142;-88
2022/01/03 07:01:45;;;;;;;23.73;2.77;;;11.10;99.90;;;;;;6311517;22;20154;-87
2022/01/03 07:04:11;;;;;;;12.73;3.00;;;11.20;99.90;;;;;;6311262;22;20152;-87
2022/01/03 07:06:36;;;;;;;18.90;2.70;;;11.30;99.90;;;;;;6311218;22;20148;-87
2022/01/03 07:09:06;;;;;;;10.50;2.97;;;11.20;99.90;;;;;;6311261;22;20582;-86
2022/01/03 07:11:33;;;;;;;18.97;3.87;;;11.20;99.90;;;;;;6311490;22;20148;-86
2022/01/03 07:19:26;;;;;;;19.60;2.90;;;11.20;99.90;;;;;;6338982;22;20194;-86
2022/01/03 07:21:52;;;;;;;17.03;3.30;;;11.30;99.90;;;;;;6311038;22;20173;-86
2022/01/03 07:24:18;;;;;;;15.83;2.70;;;11.40;99.90;;;;;;6311019;22;20223;-87
2022/01/03 07:26:43;;;;;;;13.80;3.10;;;11.40;99.90;;;;;;6311244;22;20184;-87
2022/01/03 07:29:09;;;;;;;14.20;3.23;;;11.40;99.90;;;;;;6310995;22;20142;-87
2022/01/03 07:31:35;;;;;;;17.30;3.60;;;11.40;99.90;;;;;;6311343;22;20148;-87
2022/01/03 07:34:00;;;;;;;18.23;3.10;;;11.40;99.90;;;;;;6311053;22;20149;-87
2022/01/03 07:36:27;;;;;;;16.17;2.63;;;11.40;99.90;;;;;;6311072;22;20181;-88
2022/01/03 07:38:53;;;;;;;16.67;3.33;;;11.40;99.90;;;;;;6311343;22;20149;-87
2022/01/03 07:41:19;;;;;;;19.03;2.80;;;11.40;99.90;;;;;;6285927;22;20574;-87
2022/01/03 07:43:45;;;;;;;18.07;3.23;;;11.40;99.90;;;;;;6313067;22;20164;-88
2022/01/03 07:46:11;;;;;;;20.70;3.53;;;11.40;99.90;;;;;;6313192;22;20194;-87
2022/01/03 07:48:37;;;;;;;15.47;3.40;;;11.40;99.90;;;;;;6313103;22;20145;-86
2022/01/03 07:51:03;;;;;;;18.67;3.33;;;11.30;99.90;;;;;;6312586;22;20145;-87
2022/01/03 07:53:29;;;;;;;14.30;4.03;;;11.40;99.90;;;;;;6313218;22;20150;-87
2022/01/03 07:55:56;;;;;;;12.93;3.10;;;11.30;99.90;;;;;;6312857;22;20173;-87
2022/01/03 07:58:22;;;;;;;21.00;3.10;;;11.40;99.90;;;;;;6313032;22;20497;-88
2022/01/03 08:00:47;;;;;;;17.00;3.10;;;11.50;99.90;;;;;;6312831;22;20138;-88
2022/01/03 08:03:13;;;;;;;17.93;3.07;;;11.40;99.90;;;;;;6313040;22;20153;-87
2022/01/03 08:05:39;;;;;;;21.50;3.13;;;11.40;99.90;;;;;;6312901;22;20176;-88
2022/01/03 08:08:08;;;;;;;18.77;3.13;;;11.50;99.90;;;;;;6312925;22;20570;-88
2022/01/03 08:10:38;;;;;;;15.10;3.27;;;11.60;99.90;;;;;;6312798;22;20152;-88
2022/01/03 08:13:04;;;;;;;21.17;3.13;;;11.60;99.90;;;;;;6312657;22;20156;-88
2022/01/03 08:15:30;;;;;;;12.17;2.63;;;11.50;99.90;;;;;;6312631;22;20146;-88
2022/01/03 08:17:56;;;;;;;19.77;3.77;;;11.50;99.90;;;;;;6312889;22;20172;-88
2022/01/03 08:20:25;;;;;;;19.10;3.27;;;11.60;99.90;;;;;;6312476;22;20146;-87
2022/01/03 08:22:51;;;;;;;16.93;2.80;;;11.50;99.90;;;;;;6312546;22;20165;-88
2022/01/03 08:25:17;;;;;;;18.53;3.70;;;11.40;99.90;;;;;;6312452;22;20566;-87
2022/01/03 08:27:43;;;;;;;17.87;3.83;;;11.50;99.90;;;;;;6312816;22;20145;-87
2022/01/03 08:30:09;;;;;;;20.60;3.07;;;11.60;99.90;;;;;;6312753;22;20469;-87
2022/01/03 08:32:34;;;;;;;16.27;3.50;;;11.50;99.90;;;;;;6313180;22;20206;-87
2022/01/03 08:35:00;;;;;;;13.50;2.70;;;11.60;99.90;;;;;;6312841;22;20188;-88
2022/01/03 08:37:25;;;;;;;17.47;3.07;;;11.50;99.90;;;;;;6312956;22;20180;-88
2022/01/03 08:39:51;;;;;;;17.17;2.80;;;11.50;99.90;;;;;;6312709;22;20141;-88
2022/01/03 08:42:18;;;;;;;21.57;3.13;;;11.50;99.90;;;;;;6312473;22;20148;-88
2022/01/03 08:44:44;;;;;;;16.30;2.83;;;11.60;99.90;;;;;;6313073;22;20159;-88
2022/01/03 08:47:10;;;;;;;15.90;2.17;;;11.50;99.90;;;;;;6312799;22;20149;-88
2022/01/03 08:49:35;;;;;;;14.67;2.97;;;11.40;99.90;;;;;;6312197;22;20531;-88
2022/01/03 08:52:02;;;;;;;15.13;2.70;;;11.40;99.90;;;;;;6312510;22;20224;-88
2022/01/03 08:54:27;;;;;;;14.73;2.90;;;11.40;99.90;;;;;;6312417;22;20154;-87
2022/01/03 08:56:54;;;;;;;20.73;3.10;;;11.50;99.90;;;;;;6312360;22;20756;-87
2022/01/03 08:59:19;;;;;;;13.47;2.70;;;11.50;99.90;;;;;;6312492;22;20205;-87
2022/01/03 09:01:45;;;;;;;17.23;2.43;;;11.50;99.90;;;;;;6312166;22;20225;-88
2022/01/03 09:04:11;;;;;;;16.80;2.67;;;11.50;99.90;;;;;;6312394;22;20147;-88
2022/01/03 09:06:36;;;;;;;17.87;2.50;;;11.40;99.90;;;;;;6312487;22;20141;-88
2022/01/03 09:09:05;;;;;;;14.77;2.60;;;11.50;99.90;;;;;;6312407;22;20141;-88
2022/01/03 09:11:31;;;;;;;15.77;2.43;;;11.50;99.90;;;;;;6312413;22;20160;-88
2022/01/03 09:13:57;;;;;;;14.33;2.27;;;11.60;99.90;;;;;;6312683;22;20146;-88
2022/01/03 09:16:22;;;;;;;13.13;2.00;;;11.60;99.90;;;;;;6312000;22;20653;-87
2022/01/03 09:18:48;;;;;;;13.47;2.53;;;11.70;99.90;;;;;;6312287;22;20489;-87
2022/01/03 09:21:14;;;;;;;13.57;2.20;;;11.70;99.90;;;;;;6312163;22;20199;-87
2022/01/03 09:23:45;;;;;;;11.70;2.53;;;11.60;99.90;;;;;;6311874;22;20159;-87
2022/01/03 09:28:58;;;;;;;13.63;2.23;;;11.50;99.90;;;;;;6339497;22;20144;-87
2022/01/03 09:31:32;;;;;;;10.73;2.20;;;11.50;99.90;;;;;;6311534;22;20155;-87
2022/01/03 09:34:00;;;;;;;13.00;2.13;;;11.60;99.90;;;;;;6312177;22;20148;-87
2022/01/03 09:36:28;;;;;;;16.80;2.77;;;11.60;99.90;;;;;;6311551;22;20188;-86
2022/01/03 09:38:54;;;;;;;16.53;2.93;;;11.60;99.90;;;;;;6311802;22;20143;-87
2022/01/03 09:41:23;;;;;;;13.13;3.23;;;11.60;99.90;;;;;;6311988;22;20562;-84
2022/01/03 09:44:00;;;;;;;17.07;2.60;;;11.70;99.90;;;;;;6311377;22;20155;-86
2022/01/03 09:46:43;;;;;;;10.13;2.93;;;11.60;99.90;;;;;;6311234;22;20156;-87
2022/01/03 09:49:11;;;;;;;15.07;3.23;;;11.60;99.90;;;;;;6311727;22;20154;-87
2022/01/03 09:51:38;;;;;;;12.17;2.80;;;11.60;99.90;;;;;;6311713;22;20232;-88
2022/01/03 09:54:14;;;;;;;13.83;3.20;;;11.60;99.90;;;;;;6312082;22;20153;-87
2022/01/03 09:56:41;;;;;;;18.43;3.67;;;11.70;99.90;;;;;;6311710;22;20306;-89
2022/01/03 09:59:07;;;;;;;14.80;3.23;;;11.70;99.90;;;;;;6311601;22;20139;-89
2022/01/03 10:01:34;;;;;;;14.53;3.80;;;11.70;99.90;;;;;;6311462;22;20636;-88
2022/01/03 10:04:01;;;;;;;16.27;4.57;;;11.70;99.90;;;;;;6311424;22;20141;-89
2022/01/03 10:06:27;;;;;;;17.80;3.83;;;11.80;99.90;;;;;;6311798;22;20152;-89
2022/01/03 10:08:54;;;;;;;17.63;5.30;;;11.90;99.90;;;;;;6311825;22;20642;-89
2022/01/03 10:11:34;;;;;;;11.60;3.50;;;11.90;99.90;;;;;;6311717;22;20464;-90
2022/01/03 10:14:00;;;;;;;17.40;3.90;;;11.90;99.90;;;;;;6311543;22;20147;-90
2022/01/03 10:16:28;;;;;;;19.43;3.83;;;11.90;99.90;;;;;;6311538;22;20629;-91
2022/01/03 10:18:53;;;;;;;33.20;9.33;;;11.80;99.90;;;;;;6311343;22;20152;-88
2022/01/03 10:21:39;;;;;;;19.13;4.63;;;11.90;99.90;;;;;;6311717;22;20415;-88
2022/01/03 10:24:05;;;;;;;22.40;4.97;;;11.80;99.90;;;;;;6311072;22;20234;-86
2022/01/03 10:26:32;;;;;;;19.63;3.97;;;11.80;99.90;;;;;;6311548;22;20153;-86
2022/01/03 10:29:19;;;;;;;27.47;4.67;;;11.70;99.90;;;;;;6310718;22;20566;-88
2022/01/03 10:31:48;;;;;;;18.97;4.20;;;11.60;99.90;;;;;;6310840;22;20570;-87
2022/01/03 10:34:16;;;;;;;18.17;3.63;;;11.50;99.90;;;;;;6310292;22;20146;-87
2022/01/03 10:36:45;;;;;;;23.53;6.47;;;11.20;99.90;;;;;;6309998;22;20181;-87
2022/01/03 10:39:16;;;;;;;27.30;4.37;;;11.20;99.90;;;;;;6310323;22;20145;-87
2022/01/03 10:41:43;;;;;;;27.13;4.10;;;11.10;99.90;;;;;;6310610;22;20156;-87
2022/01/03 10:44:09;;;;;;;26.57;5.00;;;11.10;99.90;;;;;;6310141;22;20172;-88
2022/01/03 10:46:49;;;;;;;47.40;9.37;;;11.00;99.90;;;;;;6311009;22;20186;-88
2022/01/03 10:49:18;;;;;;;30.40;6.33;;;11.10;99.90;;;;;;6310622;22;20600;-87
2022/01/03 10:51:44;;;;;;;37.13;7.20;;;11.00;99.90;;;;;;6310998;22;20149;-87
2022/01/03 10:54:12;;;;;;;24.70;4.47;;;11.00;99.90;;;;;;6311540;22;20147;-87
2022/01/03 10:56:40;;;;;;;26.57;4.60;;;11.10;99.90;;;;;;6311362;22;20173;-88
2022/01/03 10:59:14;;;;;;;27.60;5.63;;;11.20;99.90;;;;;;6311141;22;20170;-87
2022/01/03 11:01:41;;;;;;;25.13;5.27;;;11.20;99.90;;;;;;6310685;22;20149;-87
2022/01/03 11:04:07;;;;;;;23.37;5.27;;;11.30;99.90;;;;;;6310144;22;20172;-87
2022/01/03 11:11:49;;;;;;;26.73;5.23;;;11.40;99.90;;;;;;6339070;22;20589;-87
2022/01/03 11:14:42;;;;;;;23.27;5.43;;;11.40;99.90;;;;;;6310514;22;20145;-88
2022/01/03 11:17:28;;;;;;;21.37;4.73;;;11.40;99.90;;;;;;6312119;22;20189;-88
2022/01/03 11:20:00;;;;;;;28.00;5.37;;;11.40;99.90;;;;;;6312777;22;20157;-88
2022/01/03 11:22:47;;;;;;;28.73;4.80;;;11.20;99.90;;;;;;6312679;22;20472;-88
2022/01/03 11:25:12;;;;;;;31.90;6.20;;;11.20;99.90;;;;;;6312786;22;20153;-88
2022/01/03 11:27:40;;;;;;;28.30;4.27;;;11.10;99.90;;;;;;6312464;22;20451;-88
2022/01/03 11:30:12;;;;;;;24.60;5.43;;;11.00;99.90;;;;;;6312937;22;20234;-88
2022/01/03 11:32:48;;;;;;;26.97;4.63;;;11.10;99.90;;;;;;6311480;22;20149;-87
2022/01/03 11:35:14;;;;;;;24.53;4.37;;;11.10;99.90;;;;;;6312157;22;20205;-87
2022/01/03 11:37:44;;;;;;;25.17;4.93;;;11.20;99.90;;;;;;6312650;22;20625;-88
2022/01/03 11:40:11;;;;;;;22.60;4.67;;;11.20;99.90;;;;;;6312699;22;20582;-88
2022/01/03 11:42:38;;;;;;;20.40;4.60;;;11.20;99.90;;;;;;6312233;22;20616;-88
2022/01/03 11:45:04;;;;;;;24.07;4.33;;;11.10;99.90;;;;;;6312573;22;20544;-88
2022/01/03 11:47:31;;;;;;;29.27;5.93;;;11.00;99.90;;;;;;6312699;22;20153;-88
2022/01/03 11:49:57;;;;;;;18.07;3.53;;;11.00;99.90;;;;;;6314330;22;20477;-88
2022/01/03 11:52:24;;;;;;;18.70;3.97;;;11.00;99.90;;;;;;6313162;22;20156;-87
2022/01/03 11:54:53;;;;;;;26.67;4.20;;;10.90;99.90;;;;;;6312183;22;20179;-88
2022/01/03 11:57:42;;;;;;;25.10;4.43;;;10.80;99.90;;;;;;6312386;22;20191;-87
2022/01/03 12:05:49;;;;;;;20.80;6.07;;;10.50;99.90;;;;;;6340116;22;20268;-87
2022/01/03 12:08:30;;;;;;;48.87;7.77;;;10.40;99.90;;;;;;6309921;22;20153;-86
2022/01/03 12:11:00;;;;;;;30.37;5.60;;;10.30;99.90;;;;;;6310896;22;20153;-86
2022/01/03 12:13:44;;;;;;;20.37;4.50;;;10.30;99.90;;;;;;6311947;22;20148;-86
2022/01/03 12:16:12;;;;;;;23.93;5.67;;;10.30;99.90;;;;;;6312142;22;20233;-86
2022/01/03 12:18:38;;;;;;;14.60;4.00;;;10.30;99.90;;;;;;6312243;22;20190;-88
2022/01/03 12:21:04;;;;;;;20.33;4.43;;;10.40;99.90;;;;;;6312367;22;20597;-87
2022/01/03 12:23:40;;;;;;;16.57;3.83;;;10.50;99.90;;;;;;6311994;22;20169;-86
2022/01/03 12:26:14;;;;;;;30.77;4.03;;;10.40;99.90;;;;;;6311776;22;20155;-87
2022/01/03 12:29:05;;;;;;;16.10;3.63;;;10.40;99.90;;;;;;6311357;22;20148;-87
2022/01/03 12:32:05;;;;;;;20.60;4.10;;;10.40;99.90;;;;;;6312134;22;20155;-87
2022/01/03 12:34:30;;;;;;;19.20;4.10;;;10.40;99.90;;;;;;6311331;22;20206;-87
2022/01/03 12:37:16;;;;;;;20.40;3.43;;;10.40;99.90;;;;;;6311079;22;20199;-86
2022/01/03 12:40:03;;;;;;;20.63;3.47;;;10.50;99.90;;;;;;6311497;22;20205;-86
2022/01/03 12:42:53;;;;;;;15.57;3.03;;;10.30;99.90;;;;;;6311652;22;20237;-85
2022/01/03 12:45:32;;;;;;;19.43;3.40;;;10.40;99.90;;;;;;6311935;22;20211;-87
2022/01/03 12:48:14;;;;;;;18.47;3.87;;;10.40;99.90;;;;;;6312151;22;20168;-86
2022/01/03 12:50:51;;;;;;;17.00;3.10;;;10.40;99.90;;;;;;6312108;22;20489;-86
2022/01/03 12:53:23;;;;;;;17.40;4.00;;;10.40;99.90;;;;;;6311863;22;20176;-88
2022/01/03 12:55:50;;;;;;;18.60;3.47;;;10.30;99.90;;;;;;6311669;22;20263;-86
2022/01/03 12:58:18;;;;;;;20.80;4.13;;;10.40;99.90;;;;;;6311946;22;20494;-86
2022/01/03 13:00:47;;;;;;;12.53;3.00;;;10.40;99.90;;;;;;6311641;22;20153;-86
2022/01/03 13:03:43;;;;;;;12.80;2.77;;;10.30;99.90;;;;;;6310559;22;20372;-86